Terminal Aerodrome Forecast
Issued by NWS

Home | Current Version | Previous Version | Text Only | Print | Product List | Glossary On
Versions: 1 2 3 4 5 6 7 8 9 10 11 12 13 14 15 16 17 18 19 20
000
FTUS43 KGRB 260520
TAFAUW
TAF
KAUW 260520Z 2606/2706 26010G17KT P6SM SCT035
     FM260700 27012G18KT P6SM BKN035
      TEMPO 2611/2615 BKN025
     FM261500 28018G28KT P6SM VCSH BKN030 OVC050
     FM270000 28011G18KT P6SM VCSH BKN025 OVC070=

USA.gov is the U.S. government's official web portal to all federal, state and local government web resources and services.